createdAt,value
2022-12-16T06:02:47.017Z,73.50
2022-12-16T06:08:09.931Z,73.70
2022-12-16T06:13:31.294Z,73.60
2022-12-16T06:18:53.350Z,74.00
2022-12-16T06:24:14.457Z,73.90
2022-12-16T06:29:35.648Z,73.80
2022-12-16T06:34:57.942Z,91.80
2022-12-16T06:40:19.004Z,89.90
2022-12-16T06:45:40.493Z,89.90
2022-12-16T06:51:03.281Z,74.10
2022-12-16T06:56:25.143Z,74.00
2022-12-16T07:01:55.198Z,74.00
2022-12-16T07:07:17.792Z,74.30
2022-12-16T07:12:38.956Z,90.30
2022-12-16T07:18:00.096Z,90.50
2022-12-16T07:23:22.352Z,74.70
2022-12-16T07:28:43.786Z,74.60
2022-12-16T07:34:04.920Z,89.20
2022-12-16T07:39:27.526Z,74.50
2022-12-16T07:44:48.796Z,74.40
2022-12-16T07:50:09.935Z,74.40
2022-12-16T07:55:32.621Z,74.50
2022-12-16T08:00:53.959Z,74.80
2022-12-16T08:06:16.914Z,74.90
2022-12-16T08:11:39.370Z,75.10
2022-12-16T08:17:12.389Z,74.40
2022-12-16T08:22:33.883Z,74.80
2022-12-16T08:27:55.992Z,74.60
2022-12-16T08:33:19.525Z,74.50
2022-12-16T08:38:49.520Z,74.60
2022-12-16T08:44:14.531Z,74.50
2022-12-16T08:49:35.648Z,74.40
2022-12-16T08:54:56.904Z,74.40
2022-12-16T09:00:19.343Z,74.50
2022-12-16T09:05:40.452Z,74.50
2022-12-16T09:11:01.683Z,74.00
2022-12-16T09:16:24.894Z,73.50
2022-12-16T09:21:45.935Z,73.10
2022-12-16T09:27:07.184Z,72.20
2022-12-16T09:32:29.784Z,71.70
2022-12-16T09:37:50.911Z,71.50
2022-12-16T09:43:19.118Z,71.50
2022-12-16T09:48:52.213Z,71.10
2022-12-16T09:54:23.984Z,70.70
2022-12-16T09:59:51.014Z,70.30
2022-12-16T10:05:13.512Z,69.80
2022-12-16T10:10:41.301Z,69.50
2022-12-16T10:16:08.281Z,69.20
2022-12-16T10:21:37.476Z,68.80
2022-12-16T10:27:08.678Z,68.50
2022-12-16T10:32:36.701Z,68.10
2022-12-16T10:38:00.866Z,67.90
2022-12-16T10:43:30.137Z,67.70
2022-12-16T10:48:56.607Z,67.50
2022-12-16T10:54:39.042Z,67.50
2022-12-16T11:00:00.200Z,67.50
2022-12-16T11:05:39.061Z,67.50
2022-12-16T11:11:02.635Z,67.30
2022-12-16T11:16:33.472Z,67.30
2022-12-16T11:21:54.723Z,67.20
2022-12-16T11:27:18.646Z,67.00
2022-12-16T11:32:43.801Z,67.10
2022-12-16T11:38:07.686Z,67.00
2022-12-16T11:43:33.701Z,66.70
2022-12-16T11:48:56.443Z,66.10
2022-12-16T11:54:22.657Z,65.60
2022-12-16T11:59:51.283Z,64.80
2022-12-16T12:05:12.422Z,64.30
2022-12-16T12:10:53.918Z,63.90
2022-12-16T12:16:29.032Z,63.40
2022-12-16T12:21:58.362Z,62.60
2022-12-16T12:27:26.423Z,62.20
2022-12-16T12:32:57.835Z,62.00
2022-12-16T12:38:24.901Z,61.80
2022-12-16T12:43:57.456Z,61.40
2022-12-16T12:49:28.719Z,61.10
2022-12-16T12:54:56.515Z,61.20
2022-12-16T13:00:21.958Z,60.70
2022-12-16T13:05:53.435Z,60.00
2022-12-16T13:11:34.982Z,59.40
2022-12-16T13:17:25.838Z,59.00
2022-12-16T13:22:50.946Z,58.80
2022-12-16T13:28:14.319Z,58.90
2022-12-16T13:33:49.323Z,58.70
2022-12-16T13:39:13.295Z,58.70
2022-12-16T13:45:17.737Z,58.50
2022-12-16T13:50:59.577Z,58.30
2022-12-16T13:56:23.152Z,57.80
2022-12-16T14:01:52.768Z,57.80
2022-12-16T14:07:24.454Z,57.60
2022-12-16T14:13:08.845Z,57.70
2022-12-16T14:18:43.906Z,57.40
2022-12-16T14:24:11.965Z,57.20
2022-12-16T14:29:39.953Z,57.30
2022-12-16T14:35:02.470Z,57.20
2022-12-16T14:40:45.922Z,57.20
2022-12-16T14:46:08.269Z,57.30
2022-12-16T14:51:42.256Z,57.50
2022-12-16T14:57:03.564Z,57.60
2022-12-16T15:02:37.336Z,57.60
2022-12-16T15:08:00.119Z,57.60
2022-12-16T15:13:21.209Z,57.80
2022-12-16T15:18:46.094Z,58.00
2022-12-16T15:24:09.496Z,58.10
2022-12-16T15:29:47.239Z,58.30
2022-12-16T15:35:08.339Z,58.60
2022-12-16T15:40:43.796Z,58.70
2022-12-16T15:46:07.916Z,58.60
2022-12-16T15:51:47.503Z,58.80
2022-12-16T15:57:09.842Z,59.00
2022-12-16T16:02:36.001Z,59.40
2022-12-16T16:08:02.028Z,59.80
2022-12-16T16:13:26.488Z,60.30
2022-12-16T16:18:47.592Z,60.60
2022-12-16T16:24:08.944Z,61.10
2022-12-16T16:29:31.311Z,61.60
2022-12-16T16:34:58.048Z,61.80
2022-12-16T16:40:19.331Z,62.10
2022-12-16T16:45:42.031Z,62.30
2022-12-16T16:51:03.213Z,62.50
2022-12-16T16:56:24.901Z,62.90
2022-12-16T17:01:47.334Z,63.20
2022-12-16T17:07:08.495Z,63.30
2022-12-16T17:12:38.164Z,63.60
2022-12-16T17:18:00.688Z,63.90
2022-12-16T17:23:22.400Z,64.10
2022-12-16T17:28:43.752Z,64.20
2022-12-16T17:34:06.276Z,64.40
2022-12-16T17:39:29.532Z,64.60
2022-12-16T17:44:51.182Z,64.80
2022-12-16T17:50:13.840Z,64.90
2022-12-16T17:55:34.810Z,65.00
2022-12-16T18:00:56.176Z,65.00
2022-12-16T18:06:18.426Z,65.30
2022-12-16T18:11:39.652Z,65.40
2022-12-16T18:17:00.901Z,65.50
2022-12-16T18:22:23.085Z,65.50
2022-12-16T18:27:44.428Z,65.70
2022-12-16T18:33:05.662Z,65.70
2022-12-16T18:38:28.100Z,66.00
2022-12-16T18:43:49.231Z,66.10
2022-12-16T18:49:10.569Z,66.20
2022-12-16T18:54:33.290Z,66.30
2022-12-16T18:59:54.374Z,66.20
2022-12-16T19:05:17.768Z,66.70
2022-12-16T19:10:39.981Z,66.60
2022-12-16T19:16:01.364Z,66.60
2022-12-16T19:21:22.785Z,66.80
2022-12-16T19:26:45.332Z,67.50
2022-12-16T19:32:06.658Z,67.00
2022-12-16T19:37:27.847Z,67.00
2022-12-16T19:42:50.416Z,67.10
2022-12-16T19:48:19.079Z,67.20
2022-12-16T19:53:40.362Z,67.30
2022-12-16T19:59:03.129Z,67.30
2022-12-16T20:04:24.421Z,67.40
2022-12-16T20:09:45.541Z,67.40
2022-12-16T20:15:08.182Z,67.40
2022-12-16T20:20:29.637Z,67.50
2022-12-16T20:25:51.791Z,67.50
2022-12-16T20:31:18.825Z,67.70
2022-12-16T20:36:40.064Z,67.80
2022-12-16T20:42:01.028Z,67.80
2022-12-16T20:47:23.788Z,67.90
2022-12-16T20:52:45.043Z,67.90
2022-12-16T20:58:06.243Z,68.10
2022-12-16T21:03:28.683Z,68.10
2022-12-16T21:08:49.753Z,68.30
2022-12-16T21:14:10.342Z,68.30
2022-12-16T21:19:33.872Z,68.30
2022-12-16T21:24:55.167Z,68.50
2022-12-16T21:30:17.413Z,68.50
2022-12-16T21:35:39.744Z,68.50
2022-12-16T21:41:00.941Z,68.80
2022-12-16T21:46:22.108Z,69.00
2022-12-16T21:51:44.614Z,69.00
2022-12-16T21:57:05.971Z,69.00
2022-12-16T22:02:31.067Z,68.80
2022-12-16T22:07:53.434Z,69.00
2022-12-16T22:13:18.058Z,68.90
2022-12-16T22:18:39.310Z,69.00
2022-12-16T22:24:02.273Z,68.80
2022-12-16T22:29:23.513Z,69.00
2022-12-16T22:34:44.802Z,69.10
2022-12-16T22:40:07.256Z,69.10
2022-12-16T22:45:28.760Z,69.30
2022-12-16T22:50:50.967Z,69.20
2022-12-16T22:56:15.308Z,69.40
2022-12-16T23:01:36.808Z,69.40
2022-12-16T23:06:58.122Z,69.50
2022-12-16T23:12:20.446Z,69.50
2022-12-16T23:17:41.636Z,69.60
2022-12-16T23:23:03.095Z,69.60
2022-12-16T23:28:25.362Z,69.70
